createdAt,value
2019-02-19T00:00:53.595Z,15.07
2019-02-19T00:03:21.585Z,13.33
2019-02-19T00:05:49.685Z,7.03
2019-02-19T00:08:17.828Z,14.17
2019-02-19T00:10:46.478Z,9.43
2019-02-19T00:13:14.505Z,10.17
2019-02-19T00:15:42.561Z,6.97
2019-02-19T00:18:10.652Z,13.40
2019-02-19T00:20:39.586Z,12.90
2019-02-19T00:23:07.566Z,11.80
2019-02-19T00:25:35.466Z,7.17
2019-02-19T00:28:03.653Z,9.00
2019-02-19T00:30:32.258Z,11.23
2019-02-19T00:33:00.549Z,8.00
2019-02-19T00:35:28.595Z,12.23
2019-02-19T00:37:56.841Z,12.27
2019-02-19T00:40:24.717Z,11.00
2019-02-19T00:42:52.890Z,9.23
2019-02-19T00:45:21.614Z,10.60
2019-02-19T00:47:49.977Z,8.23
2019-02-19T00:50:18.408Z,11.63
2019-02-19T00:52:47.125Z,11.13
2019-02-19T00:55:15.550Z,12.10
2019-02-19T00:57:43.566Z,9.70
2019-02-19T01:00:12.544Z,16.80
2019-02-19T01:02:40.905Z,8.43
2019-02-19T01:05:09.529Z,8.10
2019-02-19T01:07:37.642Z,11.30
2019-02-19T01:10:06.006Z,9.20
2019-02-19T01:12:34.477Z,9.23
2019-02-19T01:15:02.445Z,8.10
2019-02-19T01:17:30.909Z,9.80
2019-02-19T01:19:59.021Z,7.70
2019-02-19T01:22:27.049Z,8.83
2019-02-19T01:24:55.434Z,8.90
2019-02-19T01:27:23.452Z,8.13
2019-02-19T01:29:51.479Z,13.70
2019-02-19T01:32:19.972Z,12.30
2019-02-19T01:34:48.113Z,6.43
2019-02-19T01:37:16.207Z,10.17
2019-02-19T01:39:44.891Z,9.13
2019-02-19T01:42:13.266Z,8.00
2019-02-19T01:44:41.385Z,11.67
2019-02-19T01:47:09.697Z,11.37
2019-02-19T01:49:37.863Z,9.30
2019-02-19T01:52:06.477Z,6.77
2019-02-19T01:54:34.845Z,9.77
2019-02-19T01:57:02.964Z,7.73
2019-02-19T01:59:31.000Z,8.17
2019-02-19T02:01:59.374Z,12.63
2019-02-19T02:04:27.758Z,8.40
2019-02-19T02:06:56.122Z,13.07
2019-02-19T02:09:24.321Z,12.73
2019-02-19T02:11:52.273Z,7.07
2019-02-19T02:14:20.637Z,11.73
2019-02-19T02:16:49.042Z,12.60
2019-02-19T02:19:17.413Z,8.37
2019-02-19T02:21:45.899Z,12.57
2019-02-19T02:24:14.259Z,12.93
2019-02-19T02:26:42.638Z,10.27
2019-02-19T02:29:11.030Z,14.13
2019-02-19T02:31:39.392Z,11.33
2019-02-19T02:34:07.590Z,12.13
2019-02-19T02:36:35.529Z,10.60
2019-02-19T02:39:04.413Z,8.53
2019-02-19T02:41:32.536Z,11.93
2019-02-19T02:44:00.934Z,10.40
2019-02-19T02:46:29.434Z,13.13
2019-02-19T02:48:57.602Z,14.30
2019-02-19T02:51:25.734Z,15.30
2019-02-19T02:53:53.576Z,12.10
2019-02-19T02:56:21.749Z,12.60
2019-02-19T02:58:50.041Z,12.37
2019-02-19T03:01:18.093Z,11.07
2019-02-19T03:03:46.781Z,12.97
2019-02-19T03:06:27.054Z,13.37
2019-02-19T03:08:54.912Z,10.80
2019-02-19T03:11:23.614Z,12.23
2019-02-19T03:13:51.953Z,11.00
2019-02-19T03:16:20.339Z,16.80
2019-02-19T03:18:48.437Z,12.77
2019-02-19T03:21:16.799Z,12.60
2019-02-19T03:23:44.906Z,15.67
2019-02-19T03:26:13.075Z,12.60
2019-02-19T03:28:41.906Z,10.13
2019-02-19T03:31:09.945Z,8.10
2019-02-19T03:33:37.802Z,11.83
2019-02-19T03:36:05.764Z,11.37
2019-02-19T03:38:33.922Z,9.63
2019-02-19T03:41:02.357Z,12.50
2019-02-19T03:43:30.494Z,13.80
2019-02-19T03:45:58.634Z,8.83
2019-02-19T03:48:27.006Z,10.33
2019-02-19T03:50:55.499Z,9.20
2019-02-19T03:53:24.078Z,11.67
2019-02-19T03:55:52.683Z,10.40
2019-02-19T03:58:21.104Z,9.50
2019-02-19T04:00:49.134Z,10.97
2019-02-19T04:03:17.825Z,9.33
2019-02-19T04:05:46.153Z,12.47
2019-02-19T04:08:14.557Z,10.27
2019-02-19T04:10:42.652Z,13.33
2019-02-19T04:13:10.845Z,11.60
2019-02-19T04:15:38.807Z,12.03
2019-02-19T04:18:07.154Z,10.10
2019-02-19T04:20:35.038Z,12.93
2019-02-19T04:23:03.224Z,13.23
2019-02-19T04:25:38.688Z,9.00
2019-02-19T04:30:59.299Z,10.13
2019-02-19T04:33:27.615Z,10.73
2019-02-19T04:35:55.814Z,14.73
2019-02-19T04:38:25.292Z,15.13
2019-02-19T04:40:53.803Z,16.67
2019-02-19T04:43:21.757Z,10.90
2019-02-19T04:45:49.576Z,14.60
2019-02-19T04:48:18.203Z,11.43
2019-02-19T04:50:46.270Z,18.50
2019-02-19T04:53:14.359Z,9.97
2019-02-19T04:55:42.407Z,11.40
2019-02-19T04:58:10.785Z,16.10
2019-02-19T05:00:39.009Z,13.70
2019-02-19T05:03:07.251Z,11.43
2019-02-19T05:05:35.010Z,15.40
2019-02-19T05:08:02.771Z,9.97
2019-02-19T05:10:30.866Z,10.37
2019-02-19T05:12:59.219Z,11.87
2019-02-19T05:15:27.308Z,13.33
2019-02-19T05:17:55.477Z,12.27
2019-02-19T05:20:23.533Z,12.80
2019-02-19T05:22:51.430Z,12.07
2019-02-19T05:25:19.381Z,20.67
2019-02-19T05:27:47.447Z,10.33
2019-02-19T05:30:15.536Z,13.33
2019-02-19T05:32:43.581Z,13.90
2019-02-19T05:35:12.109Z,14.67
2019-02-19T05:37:39.814Z,16.00
2019-02-19T05:40:07.771Z,14.80
2019-02-19T05:42:35.462Z,19.40
2019-02-19T05:45:03.275Z,20.53
2019-02-19T05:47:31.184Z,12.23
2019-02-19T05:49:59.782Z,17.50
2019-02-19T05:52:27.656Z,16.43
2019-02-19T05:54:55.641Z,11.57
2019-02-19T05:57:24.089Z,11.13
2019-02-19T05:59:52.697Z,17.80
2019-02-19T06:02:20.755Z,20.07
2019-02-19T06:04:48.927Z,16.50
2019-02-19T06:07:16.897Z,12.07
2019-02-19T06:09:46.161Z,19.53
2019-02-19T06:12:14.250Z,14.57
2019-02-19T06:14:42.326Z,10.17
2019-02-19T06:17:10.502Z,13.47
2019-02-19T06:19:38.481Z,17.70
2019-02-19T06:22:07.158Z,10.67
2019-02-19T06:24:35.270Z,14.87
2019-02-19T06:27:03.308Z,12.37
2019-02-19T06:29:31.375Z,15.13
2019-02-19T06:31:59.261Z,12.93
2019-02-19T06:34:27.458Z,13.67
2019-02-19T06:36:55.413Z,14.57
2019-02-19T06:39:28.154Z,14.37
2019-02-19T06:41:56.446Z,14.80
2019-02-19T06:44:24.529Z,19.00
2019-02-19T06:46:52.586Z,13.53
2019-02-19T06:49:20.994Z,13.33
2019-02-19T06:51:48.924Z,15.03
2019-02-19T06:54:17.110Z,10.37
2019-02-19T06:56:45.373Z,16.37
2019-02-19T06:59:13.447Z,12.77
2019-02-19T07:02:02.913Z,22.47
2019-02-19T07:04:35.166Z,17.70
2019-02-19T07:07:03.225Z,13.87
2019-02-19T07:09:31.337Z,16.10
2019-02-19T07:11:59.604Z,13.40
2019-02-19T07:14:28.468Z,26.60
2019-02-19T07:16:56.416Z,23.23
2019-02-19T07:19:25.060Z,12.33
2019-02-19T07:21:56.481Z,12.63
2019-02-19T07:24:24.615Z,12.97
2019-02-19T07:26:52.686Z,19.03
2019-02-19T07:29:21.069Z,16.87
2019-02-19T07:31:49.232Z,19.93
2019-02-19T07:34:20.641Z,13.83
2019-02-19T07:36:48.631Z,11.90
2019-02-19T07:39:17.376Z,14.00
2019-02-19T07:41:45.402Z,16.13
2019-02-19T07:44:13.574Z,17.17
2019-02-19T07:46:41.892Z,13.33
2019-02-19T07:49:09.929Z,24.23
2019-02-19T07:51:37.987Z,21.50
2019-02-19T07:54:06.055Z,14.57
2019-02-19T07:56:33.770Z,19.77
2019-02-19T07:59:01.587Z,21.87
2019-02-19T08:01:29.963Z,23.47
2019-02-19T08:03:58.658Z,19.13
2019-02-19T08:06:27.331Z,17.20
2019-02-19T08:08:55.549Z,27.57
2019-02-19T08:11:23.222Z,18.57
2019-02-19T08:13:51.325Z,13.33
2019-02-19T08:16:19.637Z,22.17
2019-02-19T08:18:47.985Z,17.93
2019-02-19T08:21:16.472Z,14.77
2019-02-19T08:23:44.741Z,17.60
2019-02-19T08:26:12.811Z,11.90
2019-02-19T08:28:41.018Z,17.07
2019-02-19T08:31:08.966Z,18.10
2019-02-19T08:33:37.363Z,16.90
2019-02-19T08:36:05.698Z,14.77
2019-02-19T08:38:33.776Z,14.13
2019-02-19T08:41:02.182Z,14.47
2019-02-19T08:43:30.075Z,11.63
2019-02-19T08:45:58.018Z,12.20
2019-02-19T08:48:26.074Z,12.90
2019-02-19T08:50:54.126Z,10.60
2019-02-19T08:53:22.334Z,7.33
2019-02-19T08:55:50.602Z,14.00
2019-02-19T08:58:18.670Z,7.73
2019-02-19T09:00:47.432Z,7.43
2019-02-19T09:03:16.877Z,9.77
2019-02-19T09:05:45.472Z,8.60
2019-02-19T09:08:13.717Z,11.80
2019-02-19T09:10:42.107Z,11.67
2019-02-19T09:13:10.176Z,9.90
2019-02-19T09:15:38.341Z,11.73
2019-02-19T09:18:06.684Z,12.03
2019-02-19T09:20:36.802Z,6.83
2019-02-19T09:23:04.741Z,6.17
2019-02-19T09:25:32.987Z,9.27
2019-02-19T09:28:01.054Z,9.07
2019-02-19T09:30:29.286Z,8.50
2019-02-19T09:32:57.509Z,10.17
2019-02-19T09:35:25.713Z,9.73
2019-02-19T09:37:53.911Z,6.80
2019-02-19T09:40:22.334Z,12.60
2019-02-19T09:42:50.418Z,8.18
2019-02-19T09:45:18.845Z,7.97
2019-02-19T09:47:47.062Z,8.78
2019-02-19T09:50:15.294Z,9.13
2019-02-19T09:52:43.597Z,7.33
2019-02-19T09:55:11.458Z,12.75
2019-02-19T09:57:39.502Z,15.00
2019-02-19T10:00:09.322Z,8.55
2019-02-19T10:02:37.432Z,9.80
2019-02-19T10:05:06.205Z,6.60
2019-02-19T10:07:34.202Z,9.20
2019-02-19T10:10:02.211Z,10.38
2019-02-19T10:12:30.061Z,12.80
2019-02-19T10:14:58.176Z,5.85
2019-02-19T10:17:26.470Z,6.95
2019-02-19T10:19:54.342Z,13.22
2019-02-19T10:22:22.052Z,9.93
2019-02-19T10:24:50.319Z,6.17
2019-02-19T10:27:18.108Z,8.88
2019-02-19T10:29:56.709Z,8.60
2019-02-19T10:32:24.933Z,11.43
2019-02-19T10:34:52.808Z,10.75
2019-02-19T10:37:20.912Z,15.10
2019-02-19T10:39:49.395Z,9.30
2019-02-19T10:42:18.983Z,9.20
2019-02-19T10:44:47.334Z,11.25
2019-02-19T10:47:15.403Z,6.03
2019-02-19T10:49:43.390Z,8.20
2019-02-19T10:52:13.161Z,8.93
2019-02-19T10:54:41.086Z,5.15
2019-02-19T10:57:09.122Z,8.83
2019-02-19T10:59:37.202Z,12.05
2019-02-19T11:02:05.877Z,9.00
2019-02-19T11:04:33.965Z,6.87
2019-02-19T11:07:02.356Z,4.10
2019-02-19T11:09:30.508Z,6.35
2019-02-19T11:11:58.786Z,9.50
2019-02-19T11:14:26.849Z,4.92
2019-02-19T11:16:55.539Z,8.18
2019-02-19T11:19:23.757Z,7.95
2019-02-19T11:21:51.679Z,12.47
2019-02-19T11:24:20.001Z,5.67
2019-02-19T11:26:47.927Z,12.75
2019-02-19T11:29:15.642Z,5.35
2019-02-19T11:31:43.805Z,7.17
2019-02-19T11:34:12.675Z,9.10
2019-02-19T11:36:41.336Z,8.55
2019-02-19T11:39:11.258Z,5.85
2019-02-19T11:41:39.686Z,6.37
2019-02-19T11:44:07.841Z,6.08
2019-02-19T11:46:35.785Z,6.62
2019-02-19T11:49:04.219Z,5.80
2019-02-19T11:51:32.333Z,7.58
2019-02-19T11:54:00.322Z,7.58
2019-02-19T11:56:28.711Z,6.30
2019-02-19T11:58:57.382Z,10.88
2019-02-19T12:01:25.858Z,8.30
2019-02-19T12:03:54.763Z,12.88
2019-02-19T12:06:22.844Z,12.35
2019-02-19T12:08:51.425Z,8.63
2019-02-19T12:11:19.366Z,9.85
2019-02-19T12:13:47.637Z,9.50
2019-02-19T12:16:16.029Z,16.00
2019-02-19T12:18:46.414Z,10.45
2019-02-19T12:21:14.026Z,7.83
2019-02-19T12:23:42.212Z,7.15
2019-02-19T12:26:10.148Z,9.65
2019-02-19T12:28:38.539Z,10.58
2019-02-19T12:31:07.550Z,8.73
2019-02-19T12:33:35.733Z,8.93
2019-02-19T12:36:03.964Z,10.65
2019-02-19T12:38:32.041Z,9.18
2019-02-19T12:41:00.217Z,12.53
2019-02-19T12:43:28.208Z,10.00
2019-02-19T12:45:56.606Z,16.32
2019-02-19T12:48:24.666Z,14.65
2019-02-19T12:50:53.414Z,10.55
2019-02-19T12:53:21.921Z,13.22
2019-02-19T12:55:50.075Z,17.52
2019-02-19T12:58:18.267Z,13.53
2019-02-19T13:00:46.217Z,14.10
2019-02-19T13:03:14.381Z,9.53
2019-02-19T13:05:42.690Z,12.37
2019-02-19T13:08:14.925Z,11.25
2019-02-19T13:10:48.759Z,12.40
2019-02-19T13:13:16.689Z,13.73
2019-02-19T13:15:44.782Z,13.87
2019-02-19T13:18:12.950Z,15.50
2019-02-19T13:20:41.528Z,15.17
2019-02-19T13:23:09.935Z,11.60
2019-02-19T13:25:37.975Z,12.73
2019-02-19T13:28:06.146Z,13.87
2019-02-19T13:30:34.140Z,16.50
2019-02-19T13:33:02.809Z,8.93
2019-02-19T13:35:30.897Z,11.20
2019-02-19T13:37:59.575Z,8.90
2019-02-19T13:40:27.789Z,12.50
2019-02-19T13:42:55.727Z,14.33
2019-02-19T13:45:24.512Z,10.77
2019-02-19T13:47:52.902Z,17.93
2019-02-19T13:50:21.457Z,10.23
2019-02-19T13:53:15.064Z,12.27
2019-02-19T13:55:46.706Z,14.00
2019-02-19T13:58:17.393Z,24.83
2019-02-19T14:00:46.503Z,16.10
2019-02-19T14:03:14.982Z,17.03
2019-02-19T14:05:42.863Z,13.63
2019-02-19T14:08:14.465Z,9.70
2019-02-19T14:10:41.265Z,10.50
2019-02-19T14:13:09.350Z,9.50
2019-02-19T14:16:10.317Z,14.07
2019-02-19T14:18:48.289Z,10.87
2019-02-19T14:21:35.175Z,12.33
2019-02-19T14:24:10.542Z,13.97
2019-02-19T14:26:57.829Z,11.80
2019-02-19T14:29:41.187Z,17.40
2019-02-19T14:32:27.125Z,15.10
2019-02-19T14:35:12.561Z,16.37
2019-02-19T14:38:12.111Z,17.67
2019-02-19T14:41:05.231Z,25.90
2019-02-19T14:43:51.293Z,19.87
2019-02-19T14:46:36.965Z,12.83
2019-02-19T14:49:31.255Z,13.20
2019-02-19T14:51:58.699Z,9.40
2019-02-19T14:54:51.747Z,9.33
2019-02-19T14:57:37.757Z,10.20
2019-02-19T15:00:25.758Z,13.03
2019-02-19T15:03:12.331Z,11.63
2019-02-19T15:05:59.637Z,14.67
2019-02-19T15:08:50.785Z,19.00
2019-02-19T15:11:49.779Z,14.17
2019-02-19T15:14:36.891Z,11.73
2019-02-19T15:17:30.233Z,11.23
2019-02-19T15:20:16.165Z,6.83
2019-02-19T15:23:01.638Z,16.37
2019-02-19T15:25:47.653Z,12.03
2019-02-19T15:28:33.346Z,11.23
2019-02-19T15:31:19.240Z,10.10
2019-02-19T15:34:06.698Z,12.10
2019-02-19T15:36:54.143Z,10.33
2019-02-19T15:39:47.086Z,17.17
2019-02-19T15:42:46.879Z,10.10
2019-02-19T15:45:29.832Z,17.67
2019-02-19T15:48:15.785Z,12.37
2019-02-19T15:51:14.935Z,14.37
2019-02-19T15:54:20.960Z,10.10
2019-02-19T15:57:11.527Z,13.40
2019-02-19T15:59:57.912Z,15.80
2019-02-19T16:02:35.618Z,11.30
2019-02-19T16:05:19.849Z,14.37
2019-02-19T16:08:00.016Z,18.13
2019-02-19T16:10:49.765Z,11.73
2019-02-19T16:13:36.253Z,12.47
2019-02-19T16:16:36.430Z,22.50
2019-02-19T16:19:23.661Z,18.77
2019-02-19T16:22:02.554Z,16.27
2019-02-19T16:24:45.689Z,17.90
2019-02-19T16:27:42.213Z,18.77
2019-02-19T16:30:38.955Z,14.97
2019-02-19T16:33:20.031Z,16.03
2019-02-19T16:36:09.199Z,13.93
2019-02-19T16:38:59.150Z,14.50
2019-02-19T16:41:49.621Z,15.03
2019-02-19T16:44:30.139Z,19.00
2019-02-19T16:47:25.364Z,19.63
2019-02-19T16:50:16.215Z,20.17
2019-02-19T16:53:09.427Z,22.17
2019-02-19T16:55:59.253Z,21.90
2019-02-19T16:58:45.258Z,22.80
2019-02-19T17:01:27.086Z,17.03
2019-02-19T17:04:13.205Z,20.37
2019-02-19T17:07:09.244Z,18.47
2019-02-19T17:09:56.733Z,10.43
2019-02-19T17:12:56.064Z,18.93
2019-02-19T17:15:52.674Z,17.27
2019-02-19T17:18:34.988Z,23.20
2019-02-19T17:21:18.778Z,14.17
2019-02-19T17:24:14.893Z,17.70
2019-02-19T17:26:52.632Z,20.20
2019-02-19T17:29:41.085Z,17.13
2019-02-19T17:32:41.823Z,21.43
2019-02-19T17:35:52.432Z,15.93
2019-02-19T17:38:54.972Z,22.67
2019-02-19T17:41:39.858Z,21.40
2019-02-19T17:44:26.179Z,22.40
2019-02-19T17:47:20.951Z,20.33
2019-02-19T17:50:13.982Z,25.87
2019-02-19T17:53:14.794Z,31.60
2019-02-19T17:56:15.578Z,32.97
2019-02-19T17:58:59.109Z,30.77
2019-02-19T18:02:01.186Z,36.50
2019-02-19T18:05:14.584Z,36.23
2019-02-19T18:08:06.917Z,41.20
2019-02-19T18:10:57.565Z,37.07
2019-02-19T18:13:42.382Z,33.97
2019-02-19T18:16:23.570Z,29.63
2019-02-19T18:18:52.050Z,27.83
2019-02-19T18:21:20.676Z,26.33
2019-02-19T18:23:48.498Z,18.00
2019-02-19T18:26:16.647Z,29.87
2019-02-19T18:28:45.054Z,31.13
2019-02-19T18:31:13.377Z,40.13
2019-02-19T18:33:41.718Z,56.43
2019-02-19T18:36:09.827Z,44.67
2019-02-19T18:38:37.883Z,60.53
2019-02-19T18:41:06.054Z,47.53
2019-02-19T18:43:34.151Z,34.63
2019-02-19T18:46:02.253Z,47.47
2019-02-19T18:48:31.071Z,35.23
2019-02-19T18:50:59.503Z,33.53
2019-02-19T18:53:27.837Z,27.93
2019-02-19T18:55:56.566Z,28.27
2019-02-19T18:58:24.824Z,38.17
2019-02-19T19:00:52.666Z,29.67
2019-02-19T19:03:20.773Z,27.37
2019-02-19T19:05:48.725Z,30.83
2019-02-19T19:08:17.122Z,24.53
2019-02-19T19:10:45.218Z,19.47
2019-02-19T19:13:14.737Z,35.63
2019-02-19T19:15:43.347Z,27.17
2019-02-19T19:18:21.196Z,36.97
2019-02-19T19:21:07.874Z,28.13
2019-02-19T19:23:39.713Z,40.00
2019-02-19T19:26:07.865Z,31.20
2019-02-19T19:28:35.730Z,28.10
2019-02-19T19:31:04.211Z,20.43
2019-02-19T19:33:32.703Z,24.87
2019-02-19T19:36:00.906Z,22.70
2019-02-19T19:38:29.289Z,34.03
2019-02-19T19:40:57.128Z,31.73
2019-02-19T19:43:25.428Z,22.87
2019-02-19T19:45:53.527Z,39.40
2019-02-19T19:48:21.639Z,35.33
2019-02-19T19:50:49.942Z,34.50
2019-02-19T19:53:18.307Z,37.77
2019-02-19T19:55:47.009Z,48.47
2019-02-19T19:58:15.527Z,41.87
2019-02-19T20:00:44.010Z,35.23
2019-02-19T20:03:11.916Z,41.97
2019-02-19T20:05:40.296Z,57.43
2019-02-19T20:08:08.898Z,36.13
2019-02-19T20:10:36.951Z,48.43
2019-02-19T20:13:05.625Z,27.87
2019-02-19T20:15:33.809Z,21.87
2019-02-19T20:18:02.433Z,27.00
2019-02-19T20:20:31.054Z,25.90
2019-02-19T20:22:59.747Z,30.13
2019-02-19T20:25:28.373Z,31.27
2019-02-19T20:27:56.469Z,37.47
2019-02-19T20:30:24.286Z,30.43
2019-02-19T20:32:52.693Z,32.30
2019-02-19T20:35:21.041Z,40.80
2019-02-19T20:37:53.990Z,31.97
2019-02-19T20:40:19.402Z,31.43
2019-02-19T20:42:47.997Z,42.07
2019-02-19T20:45:16.234Z,32.63
2019-02-19T20:47:44.297Z,38.13
2019-02-19T20:50:12.789Z,40.20
2019-02-19T20:52:40.958Z,32.07
2019-02-19T20:55:09.227Z,31.73
2019-02-19T20:57:37.524Z,29.00
2019-02-19T21:00:09.534Z,43.23
2019-02-19T21:02:37.833Z,38.17
2019-02-19T21:05:06.285Z,39.17
2019-02-19T21:07:34.870Z,31.37
2019-02-19T21:10:03.298Z,31.70
2019-02-19T21:12:31.637Z,25.77
2019-02-19T21:14:59.734Z,27.23
2019-02-19T21:17:28.120Z,28.93
2019-02-19T21:19:56.779Z,35.33
2019-02-19T21:22:25.182Z,32.00
2019-02-19T21:24:53.343Z,33.53
2019-02-19T21:27:21.586Z,35.03
2019-02-19T21:29:50.002Z,31.23
2019-02-19T21:32:18.045Z,38.67
2019-02-19T21:34:46.514Z,34.23
2019-02-19T21:37:15.105Z,38.80
2019-02-19T21:39:42.874Z,41.30
2019-02-19T21:42:11.342Z,36.33
2019-02-19T21:44:39.445Z,35.33
2019-02-19T21:47:07.826Z,35.13
2019-02-19T21:49:36.393Z,40.03
2019-02-19T21:52:04.590Z,35.23
2019-02-19T21:54:32.564Z,31.33
2019-02-19T21:57:00.934Z,38.83
2019-02-19T21:59:29.957Z,35.83
2019-02-19T22:01:58.077Z,53.33
2019-02-19T22:04:26.649Z,42.67
2019-02-19T22:06:55.378Z,37.20
2019-02-19T22:09:23.842Z,35.63
2019-02-19T22:11:51.835Z,40.50
2019-02-19T22:14:20.181Z,40.17
2019-02-19T22:16:48.565Z,41.97
2019-02-19T22:19:16.665Z,41.80
2019-02-19T22:21:52.913Z,41.00
2019-02-19T22:24:36.961Z,32.73
2019-02-19T22:27:05.942Z,24.67
2019-02-19T22:29:34.430Z,37.50
2019-02-19T22:32:02.784Z,32.87
2019-02-19T22:34:30.897Z,31.43
2019-02-19T22:36:59.053Z,37.97
2019-02-19T22:39:27.323Z,33.50
2019-02-19T22:41:55.694Z,34.53
2019-02-19T22:44:23.888Z,38.87
2019-02-19T22:46:51.884Z,36.67
2019-02-19T22:49:21.185Z,39.83
2019-02-19T22:51:49.518Z,40.30
2019-02-19T22:54:28.037Z,44.83
2019-02-19T22:56:56.109Z,47.70
2019-02-19T22:59:24.792Z,40.03
2019-02-19T23:01:58.947Z,46.80
2019-02-19T23:04:27.366Z,46.10
2019-02-19T23:06:55.504Z,47.30
2019-02-19T23:09:23.845Z,36.70
2019-02-19T23:11:52.203Z,44.10
2019-02-19T23:14:20.898Z,39.83
2019-02-19T23:16:48.957Z,40.70
2019-02-19T23:19:17.774Z,42.33
2019-02-19T23:21:45.735Z,43.20
2019-02-19T23:24:13.897Z,52.07
2019-02-19T23:26:42.173Z,53.27
2019-02-19T23:29:10.554Z,50.77
2019-02-19T23:31:38.929Z,48.37
2019-02-19T23:34:07.000Z,50.17
2019-02-19T23:36:48.556Z,46.33
2019-02-19T23:39:16.963Z,49.43
2019-02-19T23:41:45.556Z,46.63
2019-02-19T23:44:14.009Z,46.93
2019-02-19T23:46:44.077Z,42.70
2019-02-19T23:49:12.667Z,42.40
2019-02-19T23:51:40.710Z,36.27
2019-02-19T23:54:09.107Z,39.00
2019-02-19T23:56:37.311Z,43.43
2019-02-19T23:59:05.567Z,44.10
